Latest Weather Observations for Cape Jaffa

IDS60801

Issued at 10:31 am CST Wednesday 1 July 2015 (issued every 30 minutes, with the page automatically refreshed every 10 minutes)

About weather observations | Map of weather stations | Latest weather observations for SA | Other Formats
Station Details ID: 026095 Name: THE LIMESTONE Lat: -36.97 Lon: 139.72 Height: 17.0 m
Data from the previous 72 hours. | See also: Recent months at Cape Jaffa
Date/Time
CST
Temp
°C
App
Temp
°C
Dew
Point
Rel
Hum
%
Delta-T
°C
Wind Press
QNH
hPa
Press
MSL
hPa
Rain
since 9 am
mm
Dir
 
Spd
km/h
Gust
km/h
Spd
kts
Gust
kts
01/10:30am 13.8 9.1 10.6 81 1.7 NW 26 33 14 18 1027.7 1027.7 0.0
01/10:00am 13.8 9.3 10.2 79 1.9 NW 24 30 13 16 1027.8 1027.8 0.0
01/09:30am 13.7 9.5 9.9 78 1.9 NW 22 28 12 15 1027.6 1027.6 0.0
01/09:00am 13.6 10.2 10.6 82 1.6 NW 19 26 10 14 1027.5 1027.5 2.4
01/08:30am 12.7 9.3 9.3 80 1.7 NW 17 24 9 13 1027.7 1027.7 2.4
01/08:00am 12.1 8.7 9.1 82 1.5 NW 17 24 9 13 1027.7 1027.7 2.4
01/07:30am 11.7 8.2 8.6 81 1.5 NW 17 22 9 12 1027.7 1027.7 2.4
01/07:00am 11.3 8.0 8.0 80 1.6 NW 15 19 8 10 1027.7 1027.7 2.4
01/06:30am 11.3 8.0 8.0 80 1.6 NW 15 20 8 11 1027.4 1027.4 2.4
01/06:00am 11.3 8.0 8.0 80 1.6 NW 15 20 8 11 1027.3 1027.3 2.4
01/05:30am 11.1 8.6 8.1 82 1.5 WNW 11 15 6 8 1027.4 1027.4 2.4
01/05:00am 11.0 7.7 8.1 82 1.4 WNW 15 20 8 11 1027.5 1027.5 2.4
01/04:30am 10.3 7.3 7.5 83 1.3 NW 13 19 7 10 1027.5 1027.5 2.4
01/04:00am 10.5 6.7 7.7 83 1.3 NW 17 22 9 12 1027.6 1027.6 2.4
01/03:30am 10.1 7.1 9.3 95 0.4 NNW 15 20 8 11 1027.8 1027.8 2.4
01/03:00am 7.1 4.9 6.2 94 0.4 NNE 7 9 4 5 1028.2 1028.2 2.4
01/02:30am 6.5 4.2 5.5 93 0.4 NNE 7 9 4 5 1028.1 1028.1 2.2
01/02:00am 6.3 3.5 5.3 93 0.4 NNE 9 9 5 5 1028.2 1028.2 2.2
01/01:30am 5.9 2.3 5.0 94 0.4 NNE 13 15 7 8 1028.1 1028.1 2.2
01/01:00am 6.2 3.0 5.3 94 0.4 NE 11 13 6 7 1028.3 1028.3 2.2
01/12:30am 6.2 3.0 5.3 94 0.4 NE 11 13 6 7 1028.6 1028.6 2.2
01/12:00am 6.3 3.5 5.3 93 0.4 ENE 9 11 5 6 1028.8 1028.8 2.2
 
Date/Time
CST
Temp
°C
App
Temp
°C
Dew
Point
Rel
Hum
%
Delta-T
°C
Wind Press
QNH
hPa
Press
MSL
hPa
Rain
since 9 am
mm
Dir
 
Spd
km/h
Gust
km/h
Spd
kts
Gust
kts
30/11:30pm 6.8 4.1 5.7 93 0.5 NE 9 11 5 6 1029.1 1029.1 2.2
30/11:00pm 6.7 4.4 5.8 94 0.4 ENE 7 9 4 5 1029.4 1029.4 2.2
30/10:30pm 6.1 3.3 5.1 93 0.4 NE 9 11 5 6 1029.5 1029.5 2.2
30/10:00pm 7.1 5.0 6.0 93 0.5 NE 6 7 3 4 1029.7 1029.7 2.2
30/09:30pm 6.9 4.8 5.8 93 0.5 NE 6 7 3 4 1029.9 1029.9 2.2
30/09:00pm 7.7 5.8 6.6 93 0.5 NE 6 7 3 4 1029.7 1029.7 2.2
30/08:30pm 7.0 4.7 5.8 92 0.5 ENE 7 7 4 4 1029.7 1029.7 2.2
30/08:00pm 7.8 5.8 6.4 91 0.6 ENE 6 7 3 4 1029.6 1029.6 2.2
30/07:30pm 9.0 8.0 7.5 90 0.7 NE 2 4 1 2 1029.8 1029.8 2.2
30/07:00pm 9.0 8.4 7.5 90 0.7 CALM 0 6 0 3 1029.6 1029.6 2.2
30/06:30pm 8.9 7.5 7.4 90 0.7 N 4 6 2 3 1029.3 1029.3 2.2
30/06:00pm 9.0 7.2 7.3 89 0.8 NNE 6 6 3 3 1029.1 1029.1 2.2
30/05:30pm 9.2 7.3 7.5 89 0.8 NNE 7 9 4 5 1028.8 1028.8 2.2
30/05:00pm 9.1 6.7 7.1 87 0.9 N 9 9 5 5 1028.7 1028.7 2.2
30/04:30pm 10.9 9.0 9.0 88 0.9 NNE 9 13 5 7 1028.6 1028.6 2.2
30/04:00pm 10.6 8.3 8.9 89 0.8 NNE 11 15 6 8 1028.6 1028.6 2.2
30/03:30pm 10.9 8.3 9.2 89 0.8 NNE 13 15 7 8 1028.4 1028.4 2.2
30/03:00pm 10.7 7.6 9.0 89 0.8 NNW 15 20 8 11 1028.6 1028.6 2.2
30/02:30pm 11.0 8.0 9.3 89 0.8 NW 15 19 8 10 1028.6 1028.6 2.2
30/02:00pm 11.7 8.2 8.9 83 1.4 NNW 17 20 9 11 1028.5 1028.5 0.0
30/01:30pm 12.3 8.9 9.0 80 1.6 NNW 17 20 9 11 1028.6 1028.6 0.0
30/01:00pm 12.5 8.7 9.0 79 1.8 NNW 19 22 10 12 1028.9 1028.9 0.0
30/12:30pm 12.6 8.7 8.7 77 1.9 NNW 19 22 10 12 1029.2 1029.2 0.0
30/12:00pm 12.3 8.4 8.8 79 1.7 N 19 24 10 13 1029.5 1029.5 0.0
30/11:30am 11.7 8.2 8.9 83 1.4 NNW 17 19 9 10 1030.0 1030.0 0.0
30/11:00am 11.6 8.2 9.2 85 1.2 NNW 17 20 9 11 1030.3 1030.3 0.0
30/10:30am 11.0 8.4 9.3 89 0.8 NW 13 17 7 9 1030.5 1030.5 0.0
30/10:00am 11.3 9.1 9.2 87 1.0 NNW 11 17 6 9 1030.6 1030.6 0.0
30/09:30am 11.4 8.8 9.3 87 1.0 N 13 15 7 8 1030.4 1030.4 0.0
30/09:00am 10.6 8.8 9.4 92 0.6 N 9 11 5 6 1030.2 1030.2 0.0
30/08:30am 8.8 7.1 7.4 91 0.7 NE 6 7 3 4 1030.0 1030.0 0.0
30/08:00am 8.0 5.9 6.8 92 0.6 NE 7 7 4 4 1029.7 1029.7 0.0
30/07:30am 8.2 6.1 6.8 91 0.6 NNE 7 7 4 4 1029.6 1029.6 0.0
30/07:00am 8.6 5.9 7.2 91 0.7 NNE 11 13 6 7 1029.5 1029.5 0.0
30/06:30am 7.5 5.4 6.0 90 0.7 NNE 6 7 3 4 1029.4 1029.4 0.0
30/06:00am 7.1 4.4 5.6 90 0.7 NE 9 11 5 6 1029.1 1029.1 0.0
30/05:30am 6.9 4.2 5.4 90 0.7 NE 9 9 5 5 1029.0 1029.0 0.0
30/05:00am 6.3 3.4 4.6 89 0.7 NE 9 9 5 5 1028.8 1028.8 0.0
30/04:30am 6.5 3.6 4.8 89 0.7 ENE 9 11 5 6 1028.8 1028.8 0.0
30/04:00am 6.7 3.8 4.9 88 0.8 ENE 9 11 5 6 1028.9 1028.9 0.0
30/03:30am 7.3 4.6 5.4 88 0.8 ENE 9 9 5 5 1029.0 1029.0 0.0
30/03:00am 7.7 5.0 5.8 88 0.8 ENE 9 11 5 6 1029.1 1029.1 0.0
30/02:30am 7.9 5.6 5.9 87 0.9 ENE 7 9 4 5 1029.1 1029.1 0.0
30/02:00am 7.9 5.3 5.9 87 0.9 ENE 9 11 5 6 1029.2 1029.2 0.0
30/01:30am 7.9 5.2 5.7 86 1.0 NE 9 9 5 5 1029.4 1029.4 0.0
30/01:00am 7.8 5.1 5.6 86 1.0 NE 9 11 5 6 1029.6 1029.6 0.0
30/12:30am 7.8 5.1 5.6 86 1.0 ENE 9 11 5 6 1029.9 1029.9 0.0
30/12:00am 7.7 5.4 5.5 86 1.0 ENE 7 9 4 5 1030.2 1030.2 0.0
 
Date/Time
CST
Temp
°C
App
Temp
°C
Dew
Point
Rel
Hum
%
Delta-T
°C
Wind Press
QNH
hPa
Press
MSL
hPa
Rain
since 9 am
mm
Dir
 
Spd
km/h
Gust
km/h
Spd
kts
Gust
kts
29/11:30pm 7.7 5.0 5.5 86 1.0 ENE 9 9 5 5 1030.2 1030.2 0.0
29/11:00pm 7.9 5.6 5.7 86 1.0 ENE 7 9 4 5 1030.4 1030.4 0.0
29/10:30pm 8.2 5.6 6.2 87 0.9 E 9 11 5 6 1030.3 1030.3 0.0
29/10:00pm 8.0 5.0 6.0 87 0.9 E 11 13 6 7 1030.4 1030.4 0.0
29/09:30pm 8.2 5.3 6.5 89 0.8 E 11 13 6 7 1030.7 1030.7 0.0
29/09:00pm 8.5 6.4 6.5 87 0.9 ENE 7 9 4 5 1030.7 1030.7 0.0
29/08:30pm 8.9 7.7 6.5 85 1.1 E 2 4 1 2 1030.8 1030.8 0.0
29/08:00pm 9.4 8.5 6.1 80 1.5 CALM 0 0 0 0 1030.8 1030.8 0.0
29/07:30pm 10.5 9.9 7.6 82 1.4 CALM 0 0 0 0 1030.8 1030.8 0.0
29/07:00pm 9.8 9.0 6.7 81 1.5 CALM 0 0 0 0 1030.7 1030.7 0.0
29/06:30pm 10.8 9.9 7.7 81 1.5 S 2 2 1 1 1030.5 1030.5 0.0
29/06:00pm 10.7 10.2 7.8 82 1.4 CALM 0 0 0 0 1030.4 1030.4 0.0
29/05:30pm 10.9 9.5 7.4 79 1.7 W 4 4 2 2 1030.3 1030.3 0.0
29/05:00pm 10.6 9.3 7.5 81 1.5 W 4 6 2 3 1030.2 1030.2 0.0
29/04:30pm 12.1 11.6 8.0 76 2.0 CALM 0 0 0 0 1030.3 1030.3 0.0
29/04:00pm 12.0 10.7 7.7 75 2.1 NW 4 6 2 3 1030.6 1030.6 0.0
29/03:30pm 13.0 11.5 7.0 67 2.9 N 4 6 2 3 1030.8 1030.8 0.0
29/03:00pm 13.3 11.6 7.5 68 2.8 NW 6 7 3 4 1030.8 1030.8 0.0
29/02:30pm 13.5 11.3 7.9 69 2.7 NNW 9 11 5 6 1031.0 1031.0 0.0
29/02:00pm 13.8 11.7 8.2 69 2.8 NNW 9 13 5 7 1031.3 1031.3 0.0
29/01:30pm 13.2 11.2 8.7 74 2.2 N 9 13 5 7 1031.6 1031.6 0.0
29/01:00pm 12.7 10.2 8.0 73 2.3 N 11 13 6 7 1031.9 1031.9 0.0
29/12:30pm 14.1 12.9 9.5 74 2.3 NNE 6 13 3 7 1032.1 1032.1 0.0
29/12:00pm 13.6 11.9 8.4 71 2.6 ENE 7 11 4 6 1032.6 1032.6 0.0
29/11:30am 11.9 9.5 7.2 73 2.2 NE 9 13 5 7 1032.8 1032.8 0.0
29/11:00am 12.2 10.7 9.2 82 1.5 NE 7 9 4 5 1033.3 1033.3 0.0
29/10:30am 10.9 9.4 9.0 88 0.9 ENE 7 9 4 5 1033.7 1033.7 0.0
29/10:00am 10.2 8.8 8.8 91 0.7 ENE 6 7 3 4 1033.9 1033.9 0.0
29/09:30am 9.3 7.2 8.2 93 0.5 ENE 9 13 5 7 1033.8 1033.8 0.0
29/09:00am 7.9 5.5 7.0 94 0.4 ENE 9 11 5 6 1033.7 1033.7 0.2
29/08:30am 6.4 3.7 5.4 93 0.4 E 9 9 5 5 1033.7 1033.7 0.2
29/08:00am 6.4 3.3 5.5 94 0.4 E 11 11 6 6 1033.5 1033.5 0.2
29/07:30am 6.2 3.4 5.3 94 0.4 E 9 11 5 6 1033.2 1033.2 0.2
29/07:00am 6.3 3.6 5.4 94 0.4 E 9 11 5 6 1033.0 1033.0 0.2
29/06:30am 6.6 3.5 5.7 94 0.4 E 11 11 6 6 1032.9 1032.9 0.0
29/06:00am 6.8 4.2 5.9 94 0.4 ESE 9 9 5 5 1033.0 1033.0 0.0
29/05:30am 6.6 3.9 5.7 94 0.4 ESE 9 9 5 5 1032.9 1032.9 0.0
29/05:00am 6.7 3.7 5.8 94 0.4 E 11 11 6 6 1033.0 1033.0 0.0
29/04:30am 6.6 3.9 5.7 94 0.4 E 9 11 5 6 1033.0 1033.0 0.0
29/04:00am 7.1 4.5 6.2 94 0.4 E 9 11 5 6 1033.1 1033.1 0.0
29/03:30am 7.4 4.9 6.5 94 0.4 E 9 9 5 5 1033.2 1033.2 0.0
29/03:00am 7.6 5.5 6.7 94 0.4 ESE 7 9 4 5 1033.4 1033.4 0.0
29/02:30am 7.5 5.0 6.6 94 0.4 E 9 11 5 6 1033.4 1033.4 0.0
29/02:00am 7.1 4.5 6.2 94 0.4 E 9 9 5 5 1033.5 1033.5 0.0
29/01:30am 6.3 3.5 5.3 93 0.4 E 9 11 5 6 1033.6 1033.6 0.0
29/01:00am 6.4 3.7 5.4 93 0.4 E 9 9 5 5 1033.8 1033.8 0.0
29/12:30am 6.7 4.4 5.7 93 0.4 E 7 7 4 4 1033.9 1033.9 0.0
29/12:00am 7.2 5.0 6.1 93 0.5 ENE 7 7 4 4 1033.9 1033.9 0.0
 
Date/Time
CST
Temp
°C
App
Temp
°C
Dew
Point
Rel
Hum
%
Delta-T
°C
Wind Press
QNH
hPa
Press
MSL
hPa
Rain
since 9 am
mm
Dir
 
Spd
km/h
Gust
km/h
Spd
kts
Gust
kts
28/11:30pm 7.6 5.4 6.4 92 0.5 ENE 7 7 4 4 1033.9 1033.9 0.0
28/11:00pm 9.1 7.9 8.0 93 0.5 ESE 4 4 2 2 1034.0 1034.0 0.0
28/10:30pm 9.2 8.7 8.0 92 0.6 CALM 0 0 0 0 1034.2 1034.2 0.0
28/10:00pm 9.8 9.1 8.7 93 0.5 ESE 2 2 1 1 1034.2 1034.2 0.0
28/09:30pm 9.4 8.6 8.2 92 0.6 ESE 2 4 1 2 1034.2 1034.2 0.0
28/09:00pm 9.5 8.4 8.3 92 0.6 ESE 4 4 2 2 1034.1 1034.1 0.0
28/08:30pm 8.5 6.8 7.4 93 0.5 E 6 6 3 3 1034.2 1034.2 0.0
28/08:00pm 9.2 8.0 8.0 92 0.6 ESE 4 6 2 3 1034.2 1034.2 0.0
28/07:30pm 9.7 9.3 8.1 90 0.8 CALM 0 0 0 0 1034.1 1034.1 0.0
28/07:00pm 10.3 9.9 8.4 88 0.9 CALM 0 0 0 0 1034.1 1034.1 0.0
28/06:30pm 10.7 10.1 8.8 88 0.9 SSW 2 4 1 2 1033.9 1033.9 0.0
28/06:00pm 11.3 10.8 9.4 88 0.9 SW 2 6 1 3 1033.8 1033.8 0.0
28/05:30pm 12.0 11.9 9.6 85 1.2 CALM 0 0 0 0 1033.7 1033.7 0.0
28/05:00pm 12.3 11.4 9.3 82 1.5 WSW 4 6 2 3 1033.8 1033.8 0.0
28/04:30pm 13.0 11.7 9.3 78 1.9 SW 6 7 3 4 1033.8 1033.8 0.0
28/04:00pm 13.5 12.5 9.0 74 2.3 SSW 4 6 2 3 1033.6 1033.6 0.0
28/03:30pm 13.9 12.8 8.5 70 2.7 SW 4 6 2 3 1033.4 1033.4 0.0
28/03:00pm 14.6 13.2 8.8 68 2.9 SW 6 9 3 5 1033.3 1033.3 0.0
28/02:30pm 15.3 14.7 10.3 72 2.6 WSW 4 6 2 3 1033.3 1033.3 0.0
28/02:00pm 15.4 14.7 10.2 71 2.7 NW 4 9 2 5 1033.3 1033.3 0.0
28/01:30pm 14.7 13.7 10.3 75 2.3 NNW 6 9 3 5 1033.5 1033.5 0.0
28/01:00pm 15.6 14.8 11.0 74 2.5 WNW 6 9 3 5 1033.7 1033.7 0.0
28/12:30pm 15.0 14.1 10.6 75 2.3 NW 6 7 3 4 1033.9 1033.9 0.0
28/12:00pm 15.5 15.0 9.2 66 3.2 NW 2 6 1 3 1034.3 1034.3 0.0
28/11:30am 14.9 14.1 9.7 71 2.7 ENE 4 6 2 3 1034.5 1034.5 0.0
28/11:00am 13.9 12.6 9.3 74 2.3 ENE 6 7 3 4 1034.8 1034.8 0.0

Other Formats:

Comma delimited format used in spreadsheet applications
http://www.bom.gov.au/fwo/IDS60801/IDS60801.94813.axf

JavaScript Object Notation format (JSON) in row-major order
http://www.bom.gov.au/fwo/IDS60801/IDS60801.94813.json